Terminal Aerodrome Forecast
Issued by NWS

Current Version | Previous Version | Text Only | Print | Product List | Glossary On
Versions: 1 2 3 4 5 6 7 8 9 10 11 12 13 14
000
FTAK31 PAJN 041723
TAFAGY
TAF
PAGY 041723Z 0418/0518 21004KT P6SM SCT050 OVC090
     FM042100 21010G18KT P6SM VCSH OVC060
     FM050100 21009KT P6SM -RA OVC060
     FM050500 21004KT P6SM -RA SCT025 OVC050
     FM051000 00000KT P6SM -RA BKN025 OVC050
     FM051300 00000KT P6SM VCSH SCT025 OVC050
      AMD LTD TO CLD VIS AND WIND=

USA.gov is the U.S. government's official web portal to all federal, state and local government web resources and services.